Time;durP1;ratioP1;P1;durP2;ratioP2;P2;SDS_P1;SDS_P2;PMS_P1;PMS_P2;Temp;Humidity;BMP_temperature;BMP_pressure;BME280_temperature;BME280_humidity;BME280_pressure;Samples;Min_cycle;Max_cycle;Signal;HPM_P1;HPM_P2
2024/02/26 00:02:09;;;;;;;44.60;41.30;;;;;;;5.35;100.00;100728.16;5112611;28;20051;-75
2024/02/26 00:04:35;;;;;;;46.20;42.72;;;;;;;5.59;100.00;100721.16;5110033;28;20043;-76
2024/02/26 00:07:13;;;;;;;46.70;43.50;;;;;;;5.34;100.00;100721.28;5109214;28;20067;-76
2024/02/26 00:09:40;;;;;;;45.90;42.33;;;;;;;5.33;100.00;100719.63;5099465;28;20542;-76
2024/02/26 00:12:07;;;;;;;45.60;42.30;;;;;;;5.20;100.00;100714.06;5102732;28;20047;-76
2024/02/26 00:14:36;;;;;;;41.85;38.88;;;;;;;5.11;100.00;100715.91;5112351;28;20507;-76
2024/02/26 00:17:03;;;;;;;42.88;39.58;;;;;;;5.01;100.00;100718.75;5111159;28;20044;-76
2024/02/26 00:19:30;;;;;;;45.42;41.78;;;;;;;4.94;100.00;100715.16;5107476;28;20047;-75
2024/02/26 00:22:05;;;;;;;41.30;38.15;;;;;;;5.23;100.00;100709.31;5093276;28;20527;-75
2024/02/26 00:24:32;;;;;;;41.85;38.45;;;;;;;5.01;100.00;100707.41;5100373;28;20052;-75
2024/02/26 00:27:01;;;;;;;45.95;41.92;;;;;;;5.00;100.00;100706.59;5098237;28;20047;-76
2024/02/26 00:29:28;;;;;;;43.90;40.80;;;;;;;4.77;100.00;100703.84;5105018;28;20048;-76
2024/02/26 00:31:56;;;;;;;41.47;38.58;;;;;;;4.94;100.00;100703.81;5096269;28;20043;-75
2024/02/26 00:34:25;;;;;;;41.92;38.83;;;;;;;4.70;100.00;100705.53;5085151;28;20040;-76
2024/02/26 00:36:51;;;;;;;42.58;39.40;;;;;;;4.63;100.00;100703.72;5108657;28;20103;-75
2024/02/26 00:39:18;;;;;;;43.65;40.47;;;;;;;4.66;100.00;100706.84;5101878;28;20474;-75
2024/02/26 00:41:47;;;;;;;40.10;37.10;;;;;;;4.77;100.00;100703.03;5100407;28;20051;-75
2024/02/26 00:44:14;;;;;;;42.20;39.20;;;;;;;4.62;100.00;100694.19;5091452;28;20067;-75
2024/02/26 00:46:41;;;;;;;42.53;39.10;;;;;;;4.19;100.00;100689.13;5098139;28;20055;-75
2024/02/26 00:49:09;;;;;;;43.92;40.42;;;;;;;4.34;100.00;100687.47;5103372;28;20435;-76
2024/02/26 00:51:38;;;;;;;43.78;40.58;;;;;;;4.36;100.00;100680.25;5102619;28;20060;-76
2024/02/26 00:54:14;;;;;;;44.28;41.05;;;;;;;4.54;100.00;100680.06;5096712;28;20500;-76
2024/02/26 00:56:41;;;;;;;41.85;38.85;;;;;;;4.40;100.00;100677.28;5097903;28;20055;-76
2024/02/26 00:59:07;;;;;;;43.72;40.47;;;;;;;4.58;100.00;100680.56;5103167;28;20047;-76
2024/02/26 01:01:34;;;;;;;46.33;42.45;;;;;;;4.51;100.00;100685.66;5083559;28;20052;-75
2024/02/26 01:04:01;;;;;;;45.40;41.55;;;;;;;4.28;100.00;100677.63;5095518;28;20054;-76
2024/02/26 01:06:30;;;;;;;43.03;39.83;;;;;;;4.59;100.00;100680.38;5092950;28;20056;-76
2024/02/26 01:08:56;;;;;;;42.03;38.83;;;;;;;4.75;100.00;100674.28;5079342;28;20431;-76
2024/02/26 01:11:23;;;;;;;43.28;40.28;;;;;;;4.74;100.00;100671.78;5108715;28;20523;-76
2024/02/26 01:13:56;;;;;;;41.80;38.90;;;;;;;4.40;100.00;100672.84;5096725;28;20051;-74
2024/02/26 01:16:22;;;;;;;;;;;;;;;4.49;100.00;100671.84;5081261;28;20129;-75
2024/02/26 01:18:51;;;;;;;40.22;37.33;;;;;;;4.41;100.00;100671.03;5099906;28;19924;-75
2024/02/26 01:21:17;;;;;;;40.67;37.78;;;;;;;4.29;100.00;100670.56;5100832;28;20052;-76
2024/02/26 01:23:46;;;;;;;42.40;39.40;;;;;;;4.13;100.00;100672.22;5098716;28;20048;-76
2024/02/26 01:26:13;;;;;;;43.22;40.00;;;;;;;3.93;100.00;100665.63;5098589;28;20047;-76
2024/02/26 01:28:40;;;;;;;47.25;42.88;;;;;;;3.91;100.00;100667.63;5092908;28;20109;-75
2024/02/26 01:31:08;;;;;;;41.42;38.35;;;;;;;4.27;100.00;100665.47;5104265;28;20044;-76
2024/02/26 01:33:35;;;;;;;43.83;40.33;;;;;;;4.27;100.00;100665.47;5085037;28;20128;-77
2024/02/26 01:36:02;;;;;;;36.20;33.45;;;;;;;4.24;100.00;100665.00;5095227;28;20047;-75
2024/02/26 01:38:31;;;;;;;40.92;37.92;;;;;;;4.05;100.00;100666.94;5102469;28;20149;-76
2024/02/26 01:40:59;;;;;;;39.08;36.15;;;;;;;4.22;100.00;100664.31;5091745;28;20426;-75
2024/02/26 01:43:28;;;;;;;40.40;37.40;;;;;;;4.44;100.00;100665.44;5101539;28;20044;-76
2024/02/26 01:45:56;;;;;;;41.25;38.15;;;;;;;4.28;100.00;100667.09;5105899;28;20130;-76
2024/02/26 01:48:23;;;;;;;37.47;34.85;;;;;;;4.32;100.00;100657.88;5099513;28;20051;-76
2024/02/26 01:50:50;;;;;;;37.80;34.95;;;;;;;4.50;100.00;100672.66;5104286;28;20162;-76
2024/02/26 01:53:24;;;;;;;36.38;33.55;;;;;;;4.24;100.00;100662.38;5105212;28;20043;-75
2024/02/26 01:55:51;;;;;;;37.80;34.60;;;;;;;4.09;100.00;100655.13;5095602;28;20553;-75
2024/02/26 01:58:20;;;;;;;37.13;34.28;;;;;;;3.98;100.00;100663.34;5092415;28;20076;-76
2024/02/26 02:00:47;;;;;;;38.33;35.20;;;;;;;4.04;100.00;100659.25;5100814;28;20121;-76
2024/02/26 02:03:17;;;;;;;36.80;34.10;;;;;;;4.23;100.00;100653.63;5102330;28;20123;-76
2024/02/26 02:05:46;;;;;;;41.63;38.50;;;;;;;4.28;100.00;100653.16;5092395;28;20070;-76
2024/02/26 02:08:12;;;;;;;38.20;34.45;;;;;;;4.25;100.00;100654.28;5086338;28;20438;-76
2024/02/26 02:10:40;;;;;;;37.45;34.65;;;;;;;4.27;100.00;100652.34;5091568;28;20059;-75
2024/02/26 02:13:07;;;;;;;37.85;34.95;;;;;;;4.40;100.00;100657.06;5092333;28;20051;-76
2024/02/26 02:15:35;;;;;;;42.00;38.85;;;;;;;4.65;100.00;100655.19;5093297;28;20051;-76
2024/02/26 02:18:06;;;;;;;38.45;35.35;;;;;;;4.66;100.00;100656.00;5094262;28;20044;-76
2024/02/26 02:20:35;;;;;;;41.83;38.53;;;;;;;4.92;100.00;100653.97;5108648;28;20430;-76
2024/02/26 02:23:05;;;;;;;42.20;38.53;;;;;;;4.73;100.00;100657.00;5105803;28;20048;-75
2024/02/26 02:25:32;;;;;;;37.13;33.97;;;;;;;4.52;100.00;100657.53;5105894;28;20051;-76
2024/02/26 02:27:59;;;;;;;39.22;36.08;;;;;;;4.52;100.00;100662.81;5089391;28;20052;-76
2024/02/26 02:30:29;;;;;;;48.35;44.53;;;;;;;4.58;100.00;100652.44;5096304;28;20048;-76
2024/02/26 02:32:57;;;;;;;48.03;44.53;;;;;;;4.71;100.00;100651.91;5069322;28;20916;-75
2024/02/26 02:35:24;;;;;;;44.55;41.15;;;;;;;4.43;100.00;100655.91;5094583;28;20052;-75
2024/02/26 02:37:53;;;;;;;45.80;42.40;;;;;;;4.14;100.00;100665.13;5096237;28;20131;-75
2024/02/26 02:40:20;;;;;;;43.38;40.28;;;;;;;3.92;100.00;100657.91;5091018;28;20043;-75
2024/02/26 02:42:48;;;;;;;40.65;37.75;;;;;;;4.00;100.00;100668.44;5109807;28;20142;-76
2024/02/26 02:45:28;;;;;;;45.78;42.42;;;;;;;4.15;100.00;100663.34;5109880;28;20062;-76
2024/02/26 02:47:58;;;;;;;43.83;40.63;;;;;;;3.89;100.00;100665.13;5088170;28;20051;-76
2024/02/26 02:50:25;;;;;;;40.22;37.42;;;;;;;4.02;100.00;100656.75;5106635;28;20047;-76
2024/02/26 02:52:53;;;;;;;47.85;44.65;;;;;;;4.13;100.00;100664.31;5107365;28;20050;-76
2024/02/26 02:55:20;;;;;;;51.83;48.33;;;;;;;4.00;100.00;100668.44;5088949;28;20131;-76
2024/02/26 02:57:47;;;;;;;46.00;42.40;;;;;;;4.14;100.00;100665.13;5097447;28;20139;-76
2024/02/26 03:00:16;;;;;;;39.55;36.63;;;;;;;4.16;100.00;100670.25;5098670;28;20047;-75
2024/02/26 03:02:44;;;;;;;40.58;37.67;;;;;;;4.10;100.00;100680.41;5098554;28;20051;-76
2024/02/26 03:05:11;;;;;;;40.67;37.88;;;;;;;3.93;100.00;100684.03;5093480;28;20048;-76
2024/02/26 03:07:38;;;;;;;41.03;38.10;;;;;;;4.09;100.00;100686.69;5105751;28;20047;-75
2024/02/26 03:10:08;;;;;;;46.58;43.10;;;;;;;4.21;100.00;100683.72;5097356;28;20054;-76
2024/02/26 03:12:35;;;;;;;48.00;44.55;;;;;;;4.19;100.00;100681.25;5093815;28;20048;-76
2024/02/26 03:15:02;;;;;;;44.22;41.13;;;;;;;4.12;100.00;100688.97;5092501;28;20039;-75
2024/02/26 03:17:29;;;;;;;46.28;43.08;;;;;;;4.44;100.00;100691.75;5106492;28;20792;-75
2024/02/26 03:20:10;;;;;;;47.38;44.17;;;;;;;4.32;100.00;100681.56;5095892;28;20052;-75
2024/02/26 03:22:44;;;;;;;47.22;43.67;;;;;;;4.35;100.00;100677.78;5103751;28;20047;-75
2024/02/26 03:25:13;;;;;;;47.70;44.35;;;;;;;4.19;100.00;100680.44;5104591;28;20774;-75
2024/02/26 03:27:40;;;;;;;51.63;48.10;;;;;;;4.25;100.00;100683.22;5091199;28;20060;-75
2024/02/26 03:30:08;;;;;;;51.00;47.10;;;;;;;3.99;100.00;100680.75;5093350;28;20047;-76
2024/02/26 03:32:34;;;;;;;47.33;43.75;;;;;;;4.02;100.00;100676.97;5089846;28;20055;-75
2024/02/26 03:35:08;;;;;;;49.83;46.28;;;;;;;4.27;100.00;100670.72;5089218;28;20051;-76
2024/02/26 03:37:37;;;;;;;54.78;50.67;;;;;;;4.15;100.00;100682.56;5105311;28;20515;-76
2024/02/26 03:40:07;;;;;;;49.28;45.58;;;;;;;4.02;100.00;100675.16;5106254;28;20423;-76
2024/02/26 03:42:36;;;;;;;41.22;37.92;;;;;;;4.29;100.00;100679.25;5104355;28;20069;-76
2024/02/26 03:45:03;;;;;;;43.03;40.05;;;;;;;4.18;100.00;100679.63;5088484;28;20062;-76
2024/02/26 03:47:30;;;;;;;43.65;40.42;;;;;;;4.16;100.00;100676.31;5099333;28;20059;-76
2024/02/26 03:49:56;;;;;;;41.53;38.10;;;;;;;4.23;100.00;100674.66;5092256;28;20075;-75
2024/02/26 03:52:23;;;;;;;37.00;34.30;;;;;;;4.05;100.00;100676.63;5093576;28;20052;-76
2024/02/26 03:54:50;;;;;;;44.58;41.20;;;;;;;4.10;100.00;100685.69;5087879;28;20056;-76
2024/02/26 03:57:17;;;;;;;40.20;37.20;;;;;;;4.17;100.00;100677.94;5089804;28;20056;-76
2024/02/26 03:59:45;;;;;;;38.40;35.38;;;;;;;4.11;100.00;100676.84;5099468;28;20431;-75
2024/02/26 04:02:19;;;;;;;40.15;37.05;;;;;;;4.23;100.00;100687.00;5091005;28;20047;-76
2024/02/26 04:04:50;;;;;;;43.17;38.58;;;;;;;4.26;100.00;100684.03;5096288;28;20052;-76
2024/02/26 04:07:17;;;;;;;44.92;40.60;;;;;;;4.06;100.00;100681.75;5098132;28;20052;-76
2024/02/26 04:09:45;;;;;;;40.20;37.20;;;;;;;4.33;100.00;100679.78;5100053;28;20040;-76
2024/02/26 04:12:12;;;;;;;41.60;38.30;;;;;;;4.21;100.00;100675.84;5081305;28;20054;-76
2024/02/26 04:14:39;;;;;;;38.58;35.78;;;;;;;4.15;100.00;100684.38;5100241;28;20076;-76
2024/02/26 04:17:10;;;;;;;40.53;37.55;;;;;;;4.29;100.00;100684.53;5098676;28;20052;-75
2024/02/26 04:19:37;;;;;;;42.40;39.50;;;;;;;4.36;100.00;100682.06;5096357;28;20690;-76
2024/02/26 04:22:05;;;;;;;46.15;42.90;;;;;;;4.49;100.00;100692.06;5098835;28;20450;-76
2024/02/26 04:24:32;;;;;;;41.60;38.67;;;;;;;4.40;100.00;100679.94;5096456;28;20812;-76
2024/02/26 04:26:57;;;;;;;42.55;39.35;;;;;;;4.49;100.00;100686.81;5108633;28;20052;-76
2024/02/26 04:29:24;;;;;;;45.03;41.72;;;;;;;4.44;100.00;100692.56;5092500;28;20051;-76
2024/02/26 04:31:51;;;;;;;46.72;43.13;;;;;;;4.62;100.00;100688.94;5100911;28;20062;-75
2024/02/26 04:34:20;;;;;;;45.28;41.97;;;;;;;4.45;100.00;100690.75;5069974;28;20052;-76
2024/02/26 04:36:47;;;;;;;45.38;41.88;;;;;;;4.38;100.00;100695.84;5088100;28;20040;-76
2024/02/26 04:39:18;;;;;;;43.75;40.55;;;;;;;4.55;100.00;100694.84;5097474;28;20055;-75
2024/02/26 04:41:51;;;;;;;43.40;40.20;;;;;;;4.41;100.00;100699.97;5088956;28;20048;-76
2024/02/26 04:44:22;;;;;;;41.65;38.65;;;;;;;4.34;100.00;100700.63;5086545;28;20048;-76
2024/02/26 04:46:49;;;;;;;40.45;37.33;;;;;;;4.30;100.00;100704.59;5101525;28;20422;-76
2024/02/26 04:49:16;;;;;;;43.45;39.85;;;;;;;4.24;100.00;100694.72;5095822;28;20044;-76
2024/02/26 04:51:44;;;;;;;44.47;40.15;;;;;;;4.37;100.00;100694.22;5099238;28;20432;-76
2024/02/26 04:54:11;;;;;;;45.22;41.92;;;;;;;3.75;100.00;100701.75;5102924;28;20050;-76
2024/02/26 04:56:38;;;;;;;42.63;39.63;;;;;;;3.80;100.00;100702.09;5099293;28;20051;-76
2024/02/26 04:59:05;;;;;;;42.83;39.75;;;;;;;4.06;100.00;100697.53;5099288;28;20442;-76
2024/02/26 05:01:31;;;;;;;48.80;45.25;;;;;;;4.34;100.00;100708.53;5091212;28;20114;-76
2024/02/26 05:03:58;;;;;;;49.40;45.85;;;;;;;4.32;100.00;100707.84;5107949;28;20055;-75
2024/02/26 05:06:26;;;;;;;42.38;38.72;;;;;;;4.40;100.00;100708.84;5093254;28;20043;-76
2024/02/26 05:09:00;;;;;;;41.90;39.10;;;;;;;4.51;100.00;100711.16;5096152;28;20552;-76
2024/02/26 05:11:27;;;;;;;41.92;39.08;;;;;;;4.36;100.00;100703.94;5090104;28;20059;-76
2024/02/26 05:13:54;;;;;;;39.75;37.15;;;;;;;4.29;100.00;100708.19;5091834;28;20158;-76
2024/02/26 05:16:24;;;;;;;39.78;36.92;;;;;;;4.41;100.00;100716.56;5093280;28;20055;-76
2024/02/26 05:18:51;;;;;;;38.92;36.42;;;;;;;4.47;100.00;100715.09;5092883;28;20063;-76
2024/02/26 05:21:18;;;;;;;42.22;39.53;;;;;;;4.52;100.00;100715.41;5105416;28;20071;-76
2024/02/26 05:23:53;;;;;;;41.38;38.38;;;;;;;4.76;100.00;100717.19;5090377;28;20048;-75
2024/02/26 05:26:24;;;;;;;37.55;34.85;;;;;;;4.64;100.00;100729.06;5069958;28;20050;-75
2024/02/26 05:28:51;;;;;;;38.47;35.40;;;;;;;4.58;100.00;100733.97;5111343;28;20048;-76
2024/02/26 05:31:19;;;;;;;37.63;35.03;;;;;;;4.46;100.00;100731.84;5101320;28;20040;-75
2024/02/26 05:33:46;;;;;;;43.72;40.53;;;;;;;7.47;100.00;100736.13;5087830;28;20085;-76
2024/02/26 05:36:21;;;;;;;48.83;45.53;;;;;;;7.63;100.00;100731.66;5086239;28;20054;-75
2024/02/26 05:38:48;;;;;;;33.60;31.40;;;;;;;5.19;100.00;100731.69;5094093;28;20059;-76
2024/02/26 05:41:16;;;;;;;35.08;32.53;;;;;;;4.90;100.00;100737.56;5094076;28;20056;-75
2024/02/26 05:43:44;;;;;;;34.10;31.70;;;;;;;4.78;100.00;100734.47;5092676;28;20068;-75
2024/02/26 05:46:11;;;;;;;37.50;34.70;;;;;;;4.86;100.00;100740.69;5089776;28;20478;-75
2024/02/26 05:48:37;;;;;;;39.50;35.88;;;;;;;5.05;100.00;100741.13;5090791;28;20055;-76
2024/02/26 05:51:08;;;;;;;37.22;34.53;;;;;;;5.23;100.00;100751.44;5088885;28;20043;-76
2024/02/26 05:53:35;;;;;;;38.45;35.80;;;;;;;5.03;100.00;100752.81;5097653;28;20499;-76
2024/02/26 05:56:02;;;;;;;37.55;34.55;;;;;;;5.11;100.00;100739.63;5098976;28;20040;-76
2024/02/26 05:58:30;;;;;;;36.80;34.00;;;;;;;5.26;100.00;100756.38;5106530;28;20108;-76
2024/02/26 06:01:06;;;;;;;38.10;35.22;;;;;;;5.08;100.00;100757.56;5094788;28;20363;-76
2024/02/26 06:03:34;;;;;;;37.70;34.90;;;;;;;5.04;100.00;100762.34;5106690;28;20511;-75
2024/02/26 06:06:01;;;;;;;39.97;37.08;;;;;;;4.91;100.00;100762.88;5088893;28;20055;-76
2024/02/26 06:08:28;;;;;;;44.33;40.92;;;;;;;5.25;100.00;100764.44;5101971;28;20078;-76
2024/02/26 06:11:06;;;;;;;39.85;37.05;;;;;;;5.41;100.00;100774.09;5104243;28;20521;-76
2024/02/26 06:13:41;;;;;;;42.55;39.03;;;;;;;5.62;100.00;100766.41;5101937;28;20056;-75
2024/02/26 06:16:10;;;;;;;38.03;34.95;;;;;;;5.62;100.00;100765.59;5105718;28;20084;-76
2024/02/26 06:18:46;;;;;;;37.92;35.03;;;;;;;5.64;100.00;100777.59;5096282;28;20058;-76
2024/02/26 06:21:13;;;;;;;38.00;35.30;;;;;;;5.84;100.00;100774.53;5095341;28;20138;-76
2024/02/26 06:23:45;;;;;;;42.25;39.15;;;;;;;5.66;100.00;100774.81;5095036;28;20130;-76
2024/02/26 06:26:12;;;;;;;43.60;40.40;;;;;;;5.90;100.00;100781.75;5104987;28;20062;-76
2024/02/26 06:28:40;;;;;;;43.75;40.50;;;;;;;5.96;100.00;100789.84;5104071;28;20051;-76
2024/02/26 06:31:08;;;;;;;44.13;40.70;;;;;;;6.02;100.00;100792.75;5093843;28;20047;-75
2024/02/26 06:33:39;;;;;;;46.10;42.83;;;;;;;6.16;100.00;100784.91;5099358;28;20043;-76
2024/02/26 06:36:07;;;;;;;52.28;48.53;;;;;;;6.40;100.00;100785.75;5096625;28;20405;-76
2024/02/26 06:38:34;;;;;;;54.95;50.55;;;;;;;6.59;100.00;100790.53;5093358;28;20048;-75
2024/02/26 06:41:03;;;;;;;52.03;48.13;;;;;;;6.78;100.00;100791.06;5093179;28;20048;-75
2024/02/26 06:43:30;;;;;;;47.28;43.78;;;;;;;6.83;100.00;100788.69;5109203;28;20112;-76
2024/02/26 06:45:57;;;;;;;53.83;49.85;;;;;;;6.98;100.00;100793.97;5106743;28;20649;-76
2024/02/26 06:48:24;;;;;;;49.88;46.08;;;;;;;6.98;100.00;100794.78;5102963;28;20047;-76
2024/02/26 06:50:53;;;;;;;47.83;44.28;;;;;;;7.11;100.00;100800.28;5099604;28;20044;-76
2024/02/26 06:53:20;;;;;;;47.90;44.10;;;;;;;7.26;100.00;100799.47;5092292;28;20048;-76
2024/02/26 06:55:47;;;;;;;48.88;45.38;;;;;;;7.29;100.00;100801.75;5089225;28;20047;-75
2024/02/26 06:58:14;;;;;;;50.17;46.58;;;;;;;7.38;100.00;100803.28;5090361;28;20055;-76
2024/02/26 07:00:41;;;;;;;58.55;54.28;;;;;;;7.76;100.00;100805.81;5106389;28;20049;-76
2024/02/26 07:03:08;;;;;;;57.45;52.63;;;;;;;7.91;100.00;100811.09;5093814;28;20044;-76
2024/02/26 07:05:35;;;;;;;57.40;52.30;;;;;;;8.05;100.00;100810.22;5093469;28;20040;-76
2024/02/26 07:08:16;;;;;;;54.13;50.03;;;;;;;8.22;100.00;100801.03;5095528;28;20434;-75
2024/02/26 07:10:49;;;;;;;57.85;53.70;;;;;;;8.51;100.00;100807.25;5105048;28;20414;-75
2024/02/26 07:13:20;;;;;;;57.03;52.63;;;;;;;8.79;100.00;100801.97;5094051;28;20040;-76
2024/02/26 07:15:47;;;;;;;61.47;57.08;;;;;;;8.83;100.00;100795.28;5108119;28;20044;-76
2024/02/26 07:18:14;;;;;;;62.90;58.60;;;;;;;8.89;100.00;100788.41;5087631;28;20138;-76
2024/02/26 07:20:41;;;;;;;63.28;58.92;;;;;;;9.02;100.00;100796.44;5096212;28;20079;-76
2024/02/26 07:23:08;;;;;;;64.22;59.53;;;;;;;9.17;100.00;100791.06;5101821;28;20143;-76
2024/02/26 07:25:39;;;;;;;62.17;57.80;;;;;;;9.50;100.00;100795.69;5095180;28;20059;-75
2024/02/26 07:28:07;;;;;;;61.75;57.55;;;;;;;9.72;100.00;100788.47;5101181;28;20074;-76
2024/02/26 07:30:34;;;;;;;69.05;64.60;;;;;;;9.88;100.00;100793.41;5101326;28;20051;-76
2024/02/26 07:33:02;;;;;;;70.32;65.53;;;;;;;10.12;100.00;100788.56;5098454;28;20131;-76
2024/02/26 07:35:29;;;;;;;61.05;57.03;;;;;;;10.23;100.00;100785.34;5095386;28;20473;-76
2024/02/26 07:37:56;;;;;;;72.20;65.40;;;;;;;10.68;100.00;100785.59;5088231;28;20048;-76
2024/02/26 07:40:23;;;;;;;72.55;67.65;;;;;;;10.85;100.00;100791.31;5089135;28;20161;-76
2024/02/26 07:42:51;;;;;;;62.65;57.70;;;;;;;11.09;100.00;100788.00;5102193;28;20051;-76
2024/02/26 07:45:20;;;;;;;65.95;60.80;;;;;;;11.50;100.00;100788.72;5108210;28;20817;-76
2024/02/26 07:47:47;;;;;;;60.88;56.67;;;;;;;11.60;100.00;100789.09;5090433;28;20077;-76
2024/02/26 07:50:14;;;;;;;50.70;46.67;;;;;;;11.60;100.00;100795.22;5102516;28;20058;-76
2024/02/26 07:52:41;;;;;;;51.67;47.50;;;;;;;12.18;100.00;100790.88;5109736;28;20051;-76
2024/02/26 07:55:12;;;;;;;53.05;49.55;;;;;;;12.50;100.00;100794.38;5096024;28;20146;-75
2024/02/26 07:57:42;;;;;;;49.15;45.95;;;;;;;12.70;100.00;100787.00;5101388;28;20047;-76
2024/02/26 08:00:16;;;;;;;42.95;40.20;;;;;;;12.81;100.00;100780.16;5095216;28;20052;-76
2024/02/26 08:02:44;;;;;;;42.08;39.47;;;;;;;12.87;100.00;100778.47;5087930;28;20056;-77
2024/02/26 08:05:11;;;;;;;39.10;36.50;;;;;;;13.04;100.00;100776.84;5101950;28;20104;-75
2024/02/26 08:07:37;;;;;;;41.45;38.97;;;;;;;13.18;100.00;100773.00;5093315;27;20048;-76
2024/02/26 08:10:05;;;;;;;37.85;35.35;;;;;;;13.23;100.00;100767.84;5095761;28;20422;-76
2024/02/26 08:13:04;;;;;;;35.83;33.42;;;;;;;13.44;100.00;100765.78;5095335;28;20059;-76
2024/02/26 08:15:34;;;;;;;39.42;36.80;;;;;;;13.63;100.00;100775.41;5092505;28;20491;-76
2024/02/26 08:18:02;;;;;;;38.53;36.03;;;;;;;13.61;100.00;100771.31;5092427;28;20126;-75
2024/02/26 08:20:37;;;;;;;35.55;33.30;;;;;;;13.70;100.00;100772.66;5100970;28;20060;-75
2024/02/26 08:23:04;;;;;;;35.72;33.42;;;;;;;14.03;100.00;100766.03;5091484;28;20052;-76
2024/02/26 08:25:31;;;;;;;35.50;33.22;;;;;;;14.01;100.00;100768.13;5092350;28;20498;-76
2024/02/26 08:27:58;;;;;;;37.55;34.85;;;;;;;14.23;100.00;100766.56;5090573;28;20044;-76
2024/02/26 08:30:25;;;;;;;31.58;29.77;;;;;;;13.52;100.00;100765.47;5097453;28;20155;-76
2024/02/26 08:32:53;;;;;;;45.50;42.97;;;;;;;13.89;100.00;100763.56;5104759;28;20730;-75
2024/02/26 08:35:20;;;;;;;44.78;42.28;;;;;;;13.75;100.00;100762.13;5092806;28;20062;-76
2024/02/26 08:37:48;;;;;;;49.40;46.70;;;;;;;15.02;100.00;100761.78;5091724;28;20048;-76
2024/02/26 08:40:16;;;;;;;34.40;32.30;;;;;;;15.25;100.00;100750.25;5089721;28;20506;-76
2024/02/26 08:42:43;;;;;;;34.55;32.45;;;;;;;16.74;100.00;100755.59;5104341;28;20048;-76
2024/02/26 08:45:11;;;;;;;32.60;30.70;;;;;;;17.17;100.00;100758.38;5104350;28;20059;-76
2024/02/26 08:47:38;;;;;;;32.45;30.35;;;;;;;17.54;100.00;100757.72;5087820;28;20048;-76
2024/02/26 08:50:09;;;;;;;32.20;30.40;;;;;;;16.94;100.00;100769.31;5090212;28;20040;-76
2024/02/26 08:52:42;;;;;;;31.30;29.60;;;;;;;17.35;100.00;100761.81;5103093;28;20057;-76
2024/02/26 08:55:09;;;;;;;31.25;29.48;;;;;;;16.15;100.00;100766.69;5092672;28;20051;-76
2024/02/26 08:57:41;;;;;;;33.65;31.65;;;;;;;15.86;100.00;100768.59;5095701;28;20415;-76
2024/02/26 09:00:09;;;;;;;49.05;46.45;;;;;;;14.79;100.00;100767.94;5089359;28;20051;-76
2024/02/26 09:02:42;;;;;;;43.03;40.83;;;;;;;15.64;100.00;100766.53;5090302;28;20101;-76
2024/02/26 09:05:11;;;;;;;46.53;44.05;;;;;;;15.00;100.00;100763.06;5099920;28;20484;-76
2024/02/26 09:07:39;;;;;;;32.33;30.42;;;;;;;15.40;100.00;100762.28;5093759;28;20040;-76
2024/02/26 09:10:09;;;;;;;57.55;54.47;;;;;;;15.27;100.00;100755.34;5097497;28;20529;-76
2024/02/26 09:12:35;;;;;;;43.70;41.20;;;;;;;16.86;100.00;100759.03;5089552;28;20068;-76
2024/02/26 09:15:02;;;;;;;30.48;28.58;;;;;;;18.19;100.00;100757.91;5095721;28;20051;-76
2024/02/26 09:17:29;;;;;;;39.58;37.35;;;;;;;20.74;100.00;100761.59;5096221;28;20055;-76
2024/02/26 09:19:56;;;;;;;32.25;30.35;;;;;;;15.94;100.00;100763.66;5100259;28;20132;-76
2024/02/26 09:22:24;;;;;;;32.35;30.35;;;;;;;14.79;100.00;100759.91;5096531;28;20044;-76
2024/02/26 09:24:53;;;;;;;34.35;32.25;;;;;;;17.12;100.00;100752.13;5094956;28;20400;-76
2024/02/26 09:27:20;;;;;;;33.72;31.73;;;;;;;15.23;100.00;100755.00;5106936;28;20043;-76
2024/02/26 09:29:47;;;;;;;32.33;30.33;;;;;;;14.35;100.00;100754.06;5107722;28;20436;-76
2024/02/26 09:32:15;;;;;;;30.30;28.52;;;;;;;14.20;100.00;100759.03;5104011;28;20051;-76
2024/02/26 09:34:42;;;;;;;46.83;44.33;;;;;;;14.04;100.00;100755.16;5091452;28;20048;-76
2024/02/26 09:37:09;;;;;;;47.38;44.78;;;;;;;15.82;100.00;100754.84;5089125;28;20048;-76
2024/02/26 09:39:43;;;;;;;31.40;29.58;;;;;;;20.94;100.00;100741.06;5089088;28;20054;-76
2024/02/26 09:42:13;;;;;;;32.85;30.85;;;;;;;21.91;73.69;100740.63;5099041;28;20048;-76
2024/02/26 09:44:42;;;;;;;33.60;31.40;;;;;;;20.33;87.36;100742.75;5075636;28;20052;-76
2024/02/26 09:47:11;;;;;;;37.08;34.75;;;;;;;21.06;71.84;100736.16;5086728;28;20047;-76
2024/02/26 09:49:39;;;;;;;42.03;39.33;;;;;;;17.94;100.00;100740.44;5088445;28;20563;-76
2024/02/26 09:52:07;;;;;;;38.60;36.00;;;;;;;20.57;91.32;100739.50;5089169;28;20048;-76
2024/02/26 09:54:36;;;;;;;40.03;37.33;;;;;;;21.21;73.42;100735.28;5091583;28;20052;-76
2024/02/26 09:57:14;;;;;;;40.35;37.65;;;;;;;21.75;68.68;100726.38;5102876;28;20090;-76
2024/02/26 09:59:42;;;;;;;55.10;51.72;;;;;;;22.42;59.14;100726.69;5096106;28;20518;-76
2024/02/26 10:02:14;;;;;;;42.90;39.90;;;;;;;22.61;63.20;100726.81;5092530;28;20043;-77
2024/02/26 10:04:42;;;;;;;64.10;60.30;;;;;;;22.48;55.86;100730.16;5099357;28;20052;-76
2024/02/26 10:07:12;;;;;;;73.40;69.20;;;;;;;22.45;57.81;100718.03;5091736;28;20504;-76
2024/02/26 10:09:39;;;;;;;52.03;48.63;;;;;;;22.63;51.24;100724.59;5100514;28;20137;-76
2024/02/26 10:12:11;;;;;;;41.83;38.83;;;;;;;22.34;48.80;100720.00;5089836;28;20047;-76
2024/02/26 10:14:38;;;;;;;61.40;57.47;;;;;;;21.76;52.97;100708.28;5091454;28;20419;-77
2024/02/26 10:17:08;;;;;;;44.17;41.08;;;;;;;21.59;54.71;100708.66;5089595;28;20051;-76
2024/02/26 10:19:37;;;;;;;43.17;40.20;;;;;;;22.16;54.47;100712.56;5093501;28;20060;-76
2024/02/26 10:22:05;;;;;;;63.22;59.33;;;;;;;22.07;51.91;100709.66;5089052;28;20055;-76
2024/02/26 10:24:32;;;;;;;64.20;60.28;;;;;;;21.28;59.71;100711.50;5093559;28;20097;-76
2024/02/26 10:26:59;;;;;;;52.60;49.10;;;;;;;21.86;52.85;100697.41;5092259;28;20044;-76
2024/02/26 10:29:27;;;;;;;58.00;54.40;;;;;;;21.81;57.08;100702.81;5095089;28;20051;-76
2024/02/26 10:31:58;;;;;;;56.17;52.58;;;;;;;22.19;55.83;100701.22;5105331;28;20691;-76
2024/02/26 10:34:27;;;;;;;71.60;67.40;;;;;;;22.47;53.29;100691.47;5082821;28;20048;-76
2024/02/26 10:36:55;;;;;;;66.88;62.88;;;;;;;22.74;52.24;100687.41;5085337;28;20509;-72
2024/02/26 10:39:21;;;;;;;42.88;40.05;;;;;;;21.91;52.66;100687.34;5088354;28;20130;-72
2024/02/26 10:41:48;;;;;;;46.85;43.95;;;;;;;21.43;53.44;100689.84;5087980;28;20048;-73
2024/02/26 10:44:15;;;;;;;48.55;45.55;;;;;;;20.78;61.24;100689.00;5095985;28;20048;-72
2024/02/26 10:46:44;;;;;;;47.88;44.97;;;;;;;21.26;57.33;100694.75;5093906;28;20062;-73
2024/02/26 10:49:23;;;;;;;47.78;44.92;;;;;;;20.87;57.05;100687.34;5087932;28;20052;-72
2024/02/26 10:51:56;;;;;;;52.20;49.00;;;;;;;21.09;56.65;100692.41;5098637;28;20055;-72
2024/02/26 10:54:26;;;;;;;69.50;65.60;;;;;;;20.90;58.36;100689.50;5100830;28;20646;-74
2024/02/26 10:56:56;;;;;;;48.53;45.53;;;;;;;20.58;59.29;100689.88;5092401;28;20437;-73
2024/02/26 10:59:24;;;;;;;47.03;43.92;;;;;;;20.44;59.11;100686.06;5087233;28;20048;-73
2024/02/26 11:01:54;;;;;;;43.33;40.33;;;;;;;20.00;61.17;100683.94;5099482;28;20055;-73
2024/02/26 11:04:22;;;;;;;41.80;38.90;;;;;;;19.98;66.42;100681.53;5100250;28;20518;-73
2024/02/26 11:06:51;;;;;;;44.45;41.70;;;;;;;19.42;71.77;100679.50;5098526;28;20046;-74
2024/02/26 11:09:20;;;;;;;45.05;42.25;;;;;;;19.32;72.45;100679.50;5093854;28;20044;-74
2024/02/26 11:11:48;;;;;;;39.03;36.33;;;;;;;19.36;74.42;100672.50;5089905;28;20524;-73
2024/02/26 11:14:15;;;;;;;40.72;38.03;;;;;;;19.30;70.51;100678.13;5097217;28;20059;-72